Time;durP1;ratioP1;P1;durP2;ratioP2;P2;SDS_P1;SDS_P2;PMS_P1;PMS_P2;Temp;Humidity;BMP_temperature;BMP_pressure;BME280_temperature;BME280_humidity;BME280_pressure;Samples;Min_cycle;Max_cycle;Signal;HPM_P1;HPM_P2
2022/04/28 00:00:13;;;;;;;10.80;5.40;;;7.10;99.90;;;;;;4958753;28;20314;-75
2022/04/28 00:02:58;;;;;;;8.60;5.17;;;7.00;99.90;;;;;;4965908;28;20213;-76
2022/04/28 00:05:43;;;;;;;10.93;5.33;;;6.90;99.90;;;;;;4961821;28;20186;-74
2022/04/28 00:08:28;;;;;;;8.83;5.17;;;6.90;99.90;;;;;;4963139;28;20225;-76
2022/04/28 00:11:15;;;;;;;9.63;5.13;;;6.80;99.90;;;;;;4957800;29;20710;-75
2022/04/28 00:14:00;;;;;;;13.63;5.73;;;6.70;99.90;;;;;;4957752;29;20190;-76
2022/04/28 00:16:45;;;;;;;15.10;6.13;;;6.70;99.90;;;;;;4957927;29;20182;-75
2022/04/28 00:19:29;;;;;;;9.83;5.30;;;6.60;99.90;;;;;;4954120;29;20281;-75
2022/04/28 00:22:14;;;;;;;8.40;5.83;;;6.60;99.90;;;;;;4962086;28;20224;-75
2022/04/28 00:24:58;;;;;;;10.03;5.60;;;6.50;99.90;;;;;;4961352;28;20233;-76
2022/04/28 00:27:43;;;;;;;14.47;5.93;;;6.40;99.90;;;;;;4948503;29;20289;-76
2022/04/28 00:30:27;;;;;;;12.77;6.07;;;6.40;99.90;;;;;;4958563;28;20302;-75
2022/04/28 00:33:11;;;;;;;8.57;5.53;;;6.40;99.90;;;;;;4964983;28;20233;-76
2022/04/28 00:35:56;;;;;;;7.80;5.57;;;6.30;99.90;;;;;;4957519;28;20245;-75
2022/04/28 00:38:44;;;;;;;8.50;5.30;;;6.30;99.90;;;;;;4958458;28;20248;-75
2022/04/28 00:41:28;;;;;;;11.93;6.20;;;6.20;99.90;;;;;;4955120;29;20221;-75
2022/04/28 00:44:13;;;;;;;12.60;5.60;;;6.10;99.90;;;;;;4956581;29;20222;-76
2022/04/28 00:46:57;;;;;;;10.03;5.77;;;6.10;99.90;;;;;;4951300;28;20252;-76
2022/04/28 00:52:45;;;;;;;11.90;6.10;;;6.00;99.90;;;;;;4958988;29;20185;-76
2022/04/28 00:55:30;;;;;;;11.50;5.43;;;5.90;99.90;;;;;;4969764;28;20198;-76
2022/04/28 00:58:14;;;;;;;9.87;6.07;;;5.80;99.90;;;;;;4938029;29;20294;-75
2022/04/28 01:00:58;;;;;;;11.80;6.70;;;5.80;99.90;;;;;;4937889;29;20230;-74
2022/04/28 01:03:46;;;;;;;7.60;5.63;;;5.70;99.90;;;;;;4958807;28;20221;-74
2022/04/28 01:06:30;;;;;;;12.40;5.97;;;5.70;99.90;;;;;;4959511;29;20224;-75
2022/04/28 01:09:15;;;;;;;7.43;5.20;;;5.60;99.90;;;;;;4959844;29;20765;-75
2022/04/28 01:11:59;;;;;;;11.87;6.70;;;5.60;99.90;;;;;;4955790;28;20202;-76
2022/04/28 01:14:44;;;;;;;11.23;6.50;;;5.60;99.90;;;;;;4971679;28;20202;-76
2022/04/28 01:17:29;;;;;;;13.67;7.10;;;5.50;99.90;;;;;;4958294;29;20294;-75
2022/04/28 01:20:13;;;;;;;11.20;6.20;;;5.50;99.90;;;;;;4961669;28;20291;-76
2022/04/28 01:22:57;;;;;;;20.83;6.90;;;5.40;99.90;;;;;;4973962;28;20204;-75
2022/04/28 01:25:41;;;;;;;9.27;6.47;;;5.40;99.90;;;;;;4960362;28;20205;-75
2022/04/28 01:28:27;;;;;;;9.13;6.90;;;5.40;99.90;;;;;;4960648;28;20736;-75
2022/04/28 01:31:11;;;;;;;13.03;6.60;;;5.30;99.90;;;;;;4964927;28;20219;-75
2022/04/28 01:33:56;;;;;;;15.17;6.43;;;5.30;99.90;;;;;;4955033;28;20225;-75
2022/04/28 01:36:40;;;;;;;16.57;6.80;;;5.30;99.90;;;;;;4979294;28;20232;-75
2022/04/28 01:39:28;;;;;;;12.17;6.80;;;5.30;99.90;;;;;;4960996;28;20213;-75
2022/04/28 01:42:13;;;;;;;10.87;6.87;;;5.30;99.90;;;;;;4960014;28;20201;-74
2022/04/28 01:44:57;;;;;;;14.80;7.57;;;5.30;99.90;;;;;;4964281;28;20197;-74
2022/04/28 01:47:42;;;;;;;14.87;7.00;;;5.30;99.90;;;;;;4953747;28;20264;-75
2022/04/28 01:50:26;;;;;;;13.37;7.20;;;5.30;99.90;;;;;;4959754;28;20237;-76
2022/04/28 01:56:13;;;;;;;16.60;7.53;;;5.20;99.90;;;;;;4961187;29;20216;-76
2022/04/28 01:59:01;;;;;;;12.43;7.63;;;5.20;99.90;;;;;;4960067;29;20188;-75
2022/04/28 02:01:45;;;;;;;14.93;7.23;;;5.20;99.90;;;;;;4952105;29;20261;-75
2022/04/28 02:04:29;;;;;;;12.33;7.00;;;5.20;99.90;;;;;;4970236;28;20328;-75
2022/04/28 02:07:14;;;;;;;14.00;7.87;;;5.10;99.90;;;;;;4977947;28;20204;-75
2022/04/28 02:09:59;;;;;;;11.17;7.60;;;5.10;99.90;;;;;;4940464;29;20725;-75
2022/04/28 02:12:43;;;;;;;12.10;7.40;;;5.10;99.90;;;;;;4956998;28;20265;-75
2022/04/28 02:15:27;;;;;;;13.07;7.30;;;5.00;99.90;;;;;;4957788;29;20221;-75
2022/04/28 02:18:11;;;;;;;14.97;6.90;;;5.00;99.90;;;;;;4959490;29;20197;-76
2022/04/28 02:20:56;;;;;;;15.07;7.77;;;5.00;99.90;;;;;;4939987;29;20810;-75
2022/04/28 02:23:40;;;;;;;13.33;6.87;;;5.00;99.90;;;;;;4955971;28;20187;-76
2022/04/28 02:26:24;;;;;;;12.17;7.70;;;4.90;99.90;;;;;;4967587;28;20211;-75
2022/04/28 02:29:08;;;;;;;11.57;7.07;;;4.90;99.90;;;;;;4959070;29;20222;-76
2022/04/28 02:31:52;;;;;;;10.87;7.20;;;4.90;99.90;;;;;;4958786;29;20184;-74
2022/04/28 02:34:36;;;;;;;9.60;6.47;;;4.80;99.90;;;;;;4958398;28;20323;-74
2022/04/28 02:37:21;;;;;;;11.97;7.03;;;4.80;99.90;;;;;;4959113;28;20188;-74
2022/04/28 02:40:06;;;;;;;9.27;6.53;;;4.80;99.90;;;;;;4958621;29;20309;-76
2022/04/28 02:42:52;;;;;;;11.80;6.57;;;4.70;99.90;;;;;;4959086;29;20241;-74
2022/04/28 02:45:36;;;;;;;13.93;7.80;;;4.70;99.90;;;;;;4958906;28;20188;-75
2022/04/28 02:48:20;;;;;;;16.90;7.80;;;4.70;99.90;;;;;;4959599;28;20255;-76
2022/04/28 02:51:05;;;;;;;10.23;7.13;;;4.70;99.90;;;;;;4958739;29;20217;-75
2022/04/28 02:53:49;;;;;;;12.63;7.50;;;4.70;99.90;;;;;;4958063;29;20198;-75
2022/04/28 02:56:34;;;;;;;11.53;7.50;;;4.60;99.90;;;;;;4955035;29;20562;-75
2022/04/28 02:59:18;;;;;;;11.17;7.10;;;4.60;99.90;;;;;;4958109;29;20558;-74
2022/04/28 03:02:03;;;;;;;16.33;7.47;;;4.60;99.90;;;;;;4956730;28;20331;-74
2022/04/28 03:04:47;;;;;;;13.93;7.30;;;4.50;99.90;;;;;;4961491;28;20677;-74
2022/04/28 03:10:49;;;;;;;12.87;7.53;;;4.40;99.90;;;;;;4970456;28;20241;-75
2022/04/28 03:13:33;;;;;;;14.83;7.17;;;4.40;99.90;;;;;;4960963;28;20241;-75
2022/04/28 03:16:17;;;;;;;12.83;7.27;;;4.30;99.90;;;;;;4967526;28;20271;-75
2022/04/28 03:19:02;;;;;;;10.77;7.90;;;4.30;99.90;;;;;;4978408;28;20247;-76
2022/04/28 03:21:46;;;;;;;8.13;6.57;;;4.20;99.90;;;;;;4977682;28;20219;-75
2022/04/28 03:24:30;;;;;;;11.97;6.90;;;4.20;99.90;;;;;;4970151;28;20211;-74
2022/04/28 03:27:15;;;;;;;13.73;7.07;;;4.20;99.90;;;;;;4958605;29;20198;-75
2022/04/28 03:30:00;;;;;;;12.10;7.13;;;4.10;99.90;;;;;;4962730;28;20864;-74
2022/04/28 03:32:44;;;;;;;11.80;6.80;;;4.10;99.90;;;;;;4962049;28;20184;-75
2022/04/28 03:35:28;;;;;;;9.87;6.70;;;4.00;99.90;;;;;;4965575;28;20210;-74
2022/04/28 03:38:12;;;;;;;13.57;7.00;;;4.00;99.90;;;;;;4942787;28;20223;-74
2022/04/28 03:40:57;;;;;;;12.17;6.60;;;4.00;99.90;;;;;;4958411;28;20299;-75
2022/04/28 03:43:41;;;;;;;12.52;9.32;;;3.90;99.90;;;;;;4952142;29;20400;-75
2022/04/28 03:46:32;;;;;;;13.00;7.60;;;3.90;99.90;;;;;;4961960;28;20598;-74
2022/04/28 03:49:16;;;;;;;10.17;7.60;;;3.80;99.90;;;;;;4949256;28;20241;-74
2022/04/28 03:52:10;;;;;;;10.57;7.17;;;3.80;99.90;;;;;;4955461;29;20199;-73
2022/04/28 03:54:54;;;;;;;10.80;6.87;;;3.80;99.90;;;;;;4952956;28;20198;-75
2022/04/28 03:57:53;;;;;;;10.33;7.57;;;3.80;99.90;;;;;;4964447;28;20237;-72
2022/04/28 04:00:48;;;;;;;13.73;7.67;;;3.80;99.90;;;;;;4950363;28;20264;-72
2022/04/28 04:03:36;;;;;;;14.87;8.13;;;3.80;99.90;;;;;;4952284;28;20218;-74
2022/04/28 04:06:21;;;;;;;11.60;7.83;;;3.80;99.90;;;;;;4956714;28;20202;-75
2022/04/28 04:09:05;;;;;;;11.07;7.87;;;3.70;99.90;;;;;;4965233;28;20203;-75
2022/04/28 04:11:49;;;;;;;14.93;8.00;;;3.60;99.90;;;;;;4951590;28;20215;-76
2022/04/28 04:14:33;;;;;;;14.00;7.47;;;3.60;99.90;;;;;;4959201;28;20343;-75
2022/04/28 04:17:18;;;;;;;11.27;7.30;;;3.60;99.90;;;;;;4956832;29;20222;-75
2022/04/28 04:20:03;;;;;;;12.80;7.37;;;3.60;99.90;;;;;;4960019;28;20214;-75
2022/04/28 04:22:47;;;;;;;10.67;8.00;;;3.50;99.90;;;;;;4950025;29;20190;-75
2022/04/28 04:25:31;;;;;;;12.37;7.37;;;3.50;99.90;;;;;;4957232;29;20229;-75
2022/04/28 04:28:16;;;;;;;9.37;7.50;;;3.50;99.90;;;;;;4957489;29;20218;-75
2022/04/28 04:34:03;;;;;;;15.93;7.43;;;3.40;99.90;;;;;;4961752;28;20183;-75
2022/04/28 04:36:48;;;;;;;13.50;8.13;;;3.40;99.90;;;;;;4956986;28;20251;-74
2022/04/28 04:39:32;;;;;;;15.53;8.20;;;3.40;99.90;;;;;;4956869;29;20243;-76
2022/04/28 04:42:17;;;;;;;15.03;8.67;;;3.50;99.90;;;;;;4961670;28;20195;-76
2022/04/28 04:45:02;;;;;;;12.30;7.77;;;3.40;99.90;;;;;;4964052;28;20225;-75
2022/04/28 04:47:46;;;;;;;12.77;8.17;;;3.50;99.90;;;;;;4966074;28;20223;-74
2022/04/28 04:50:34;;;;;;;11.40;8.13;;;3.50;99.90;;;;;;4959062;28;20266;-75
2022/04/28 04:53:18;;;;;;;14.27;8.83;;;3.40;99.90;;;;;;4962486;28;20207;-75
2022/04/28 04:56:03;;;;;;;12.57;8.37;;;3.40;99.90;;;;;;4950688;29;20272;-75
2022/04/28 04:58:47;;;;;;;13.47;8.47;;;3.40;99.90;;;;;;4959923;28;20188;-75
2022/04/28 05:01:31;;;;;;;12.57;8.43;;;3.40;99.90;;;;;;4960184;29;20243;-75
2022/04/28 05:04:16;;;;;;;13.53;8.30;;;3.50;99.90;;;;;;4960947;28;20199;-75
2022/04/28 05:07:00;;;;;;;16.97;8.47;;;3.50;99.90;;;;;;4963547;28;20228;-76
2022/04/28 05:09:45;;;;;;;14.10;8.60;;;3.50;99.90;;;;;;4955312;28;20211;-75
2022/04/28 05:12:30;;;;;;;14.10;9.10;;;3.50;99.90;;;;;;4960243;29;20186;-75
2022/04/28 05:15:17;;;;;;;16.33;9.77;;;3.60;99.90;;;;;;4960662;29;20217;-75
2022/04/28 05:18:02;;;;;;;13.80;8.73;;;3.60;99.90;;;;;;4959684;29;20199;-74
2022/04/28 05:20:49;;;;;;;17.57;9.17;;;3.70;99.90;;;;;;4942376;29;20268;-75
2022/04/28 05:23:34;;;;;;;18.20;8.87;;;3.70;99.90;;;;;;4959053;28;20238;-75
2022/04/28 05:26:18;;;;;;;16.07;8.67;;;3.80;99.90;;;;;;4966230;28;20208;-75
2022/04/28 05:29:04;;;;;;;14.67;8.87;;;3.90;99.90;;;;;;4954963;28;20695;-74
2022/04/28 05:31:49;;;;;;;17.53;9.33;;;3.90;99.90;;;;;;4954685;29;20239;-76
2022/04/28 05:34:33;;;;;;;15.50;9.93;;;4.00;99.90;;;;;;4968361;28;20205;-76
2022/04/28 05:37:19;;;;;;;15.87;9.83;;;4.00;99.90;;;;;;4959566;29;20221;-75
2022/04/28 05:40:05;;;;;;;16.13;9.80;;;4.10;99.90;;;;;;4959834;29;20240;-74
2022/04/28 05:45:53;;;;;;;16.63;9.67;;;4.20;99.90;;;;;;4957139;28;20320;-74
2022/04/28 05:48:37;;;;;;;18.57;9.90;;;4.30;99.90;;;;;;4954444;28;20218;-76
2022/04/28 05:51:21;;;;;;;17.30;9.57;;;4.40;99.90;;;;;;4957179;28;20211;-75
2022/04/28 05:54:06;;;;;;;15.73;10.17;;;4.40;99.90;;;;;;4960268;29;20565;-75
2022/04/28 05:56:51;;;;;;;24.00;10.20;;;4.50;99.90;;;;;;4968228;28;20277;-76
2022/04/28 05:59:36;;;;;;;18.73;10.40;;;4.60;99.90;;;;;;4967504;28;20322;-75
2022/04/28 06:02:21;;;;;;;18.67;11.23;;;4.70;99.90;;;;;;4959895;28;20204;-76
2022/04/28 06:05:05;;;;;;;21.00;10.90;;;4.80;99.90;;;;;;4969805;28;20180;-76
2022/04/28 06:07:50;;;;;;;19.90;10.83;;;4.90;99.90;;;;;;4975459;28;20293;-75
2022/04/28 06:10:34;;;;;;;15.17;9.40;;;4.90;99.90;;;;;;4954336;29;20220;-75
2022/04/28 06:13:18;;;;;;;18.27;9.37;;;5.00;99.90;;;;;;4953633;29;20197;-76
2022/04/28 06:16:03;;;;;;;16.83;9.27;;;5.10;99.90;;;;;;4955389;28;20657;-76
2022/04/28 06:18:47;;;;;;;18.30;9.27;;;5.20;99.90;;;;;;4953922;29;20202;-75
2022/04/28 06:21:31;;;;;;;18.27;9.33;;;5.30;99.90;;;;;;4955563;29;20302;-76
2022/04/28 06:24:15;;;;;;;16.67;9.63;;;5.40;99.90;;;;;;4959966;28;20253;-76
2022/04/28 06:26:59;;;;;;;19.13;9.63;;;5.50;99.90;;;;;;4957747;28;20204;-76
2022/04/28 06:29:44;;;;;;;22.67;9.80;;;5.60;99.90;;;;;;4961979;28;20342;-76
2022/04/28 06:32:28;;;;;;;16.10;8.40;;;5.70;99.90;;;;;;4956007;28;20562;-76
2022/04/28 06:35:12;;;;;;;12.90;8.60;;;5.80;99.90;;;;;;4953360;28;20654;-75
2022/04/28 06:37:56;;;;;;;13.00;8.77;;;5.90;99.90;;;;;;4956155;28;20202;-76
2022/04/28 06:40:40;;;;;;;15.60;8.87;;;6.00;99.90;;;;;;4957653;28;20245;-76
2022/04/28 06:43:25;;;;;;;14.00;8.07;;;6.10;99.90;;;;;;4956339;28;20201;-76
2022/04/28 06:46:12;;;;;;;16.23;7.67;;;6.20;99.90;;;;;;4945852;29;20203;-76
2022/04/28 06:48:56;;;;;;;12.50;7.67;;;6.40;99.90;;;;;;4956625;28;20217;-76
2022/04/28 06:51:40;;;;;;;15.57;8.23;;;6.50;99.90;;;;;;4959211;28;20268;-76
2022/04/28 06:54:24;;;;;;;15.73;7.17;;;6.60;99.90;;;;;;4957828;28;20246;-75
2022/04/28 06:57:08;;;;;;;14.80;7.90;;;6.70;99.90;;;;;;4955006;28;20218;-76
2022/04/28 06:59:52;;;;;;;13.93;6.97;;;6.70;99.90;;;;;;4953747;28;20351;-76
2022/04/28 07:02:36;;;;;;;13.93;7.10;;;6.80;99.90;;;;;;4959343;28;20290;-76
2022/04/28 07:05:21;;;;;;;14.27;7.30;;;7.00;99.90;;;;;;4952253;28;20287;-76
2022/04/28 07:08:06;;;;;;;9.73;6.13;;;7.10;99.90;;;;;;4941401;29;20218;-75
2022/04/28 07:10:50;;;;;;;9.10;5.93;;;7.20;99.90;;;;;;4951424;29;20738;-76
2022/04/28 07:13:38;;;;;;;16.47;6.80;;;7.40;99.90;;;;;;4953585;29;20174;-76
2022/04/28 07:16:23;;;;;;;13.57;6.53;;;7.60;99.90;;;;;;4955003;29;20721;-76
2022/04/28 07:19:08;;;;;;;9.43;4.50;;;7.70;99.90;;;;;;4947144;28;20290;-76
2022/04/28 07:21:52;;;;;;;6.43;3.90;;;7.80;99.90;;;;;;4956477;28;20246;-76
2022/04/28 07:24:36;;;;;;;16.60;4.83;;;7.90;99.90;;;;;;4956938;29;20217;-76
2022/04/28 07:27:20;;;;;;;10.67;4.30;;;8.00;99.90;;;;;;4956537;28;20219;-77
2022/04/28 07:30:05;;;;;;;9.87;4.57;;;8.20;99.90;;;;;;4954429;29;20317;-77
2022/04/28 07:32:51;;;;;;;10.83;3.97;;;8.30;99.90;;;;;;4955319;29;20195;-76
2022/04/28 07:35:36;;;;;;;5.63;4.67;;;8.40;99.90;;;;;;4954268;28;20194;-77
2022/04/28 07:38:21;;;;;;;8.43;4.33;;;8.40;99.90;;;;;;4959232;28;20194;-76
2022/04/28 07:41:06;;;;;;;12.93;5.67;;;8.40;99.90;;;;;;4952894;28;20211;-76
2022/04/28 07:43:50;;;;;;;12.10;5.20;;;8.50;99.90;;;;;;4954767;29;20639;-76
2022/04/28 07:46:34;;;;;;;12.83;5.47;;;8.70;99.90;;;;;;4951737;28;20190;-76
2022/04/28 07:49:18;;;;;;;13.30;5.13;;;8.80;99.90;;;;;;4956772;29;20230;-77
2022/04/28 07:52:03;;;;;;;10.17;4.87;;;8.90;99.90;;;;;;4955850;28;20300;-76
2022/04/28 07:54:47;;;;;;;9.80;5.30;;;9.00;99.90;;;;;;4957333;29;20211;-76
2022/04/28 07:57:32;;;;;;;7.87;5.37;;;9.10;99.90;;;;;;4956489;28;20194;-76
2022/04/28 08:00:17;;;;;;;8.70;5.30;;;9.10;99.90;;;;;;4956974;28;20348;-76
2022/04/28 08:03:01;;;;;;;13.07;5.47;;;9.20;99.90;;;;;;4957137;28;20248;-77
2022/04/28 08:05:45;;;;;;;13.90;5.73;;;9.30;99.90;;;;;;4950729;28;20198;-77
2022/04/28 08:08:30;;;;;;;8.63;5.00;;;9.40;99.90;;;;;;4951697;28;20268;-76
2022/04/28 08:11:14;;;;;;;7.47;4.97;;;9.40;99.90;;;;;;4952723;29;20576;-76
2022/04/28 08:13:58;;;;;;;9.13;4.60;;;9.40;99.90;;;;;;4956740;29;20244;-76
2022/04/28 08:16:44;;;;;;;8.47;4.77;;;9.50;99.90;;;;;;4949886;28;20181;-76
2022/04/28 08:19:30;;;;;;;10.93;5.10;;;9.50;99.90;;;;;;4957869;29;20250;-76
2022/04/28 08:22:14;;;;;;;12.13;4.90;;;9.50;99.90;;;;;;4957511;29;20190;-76
2022/04/28 08:24:58;;;;;;;9.60;4.37;;;9.50;99.90;;;;;;4957100;29;20795;-76
2022/04/28 08:27:42;;;;;;;9.97;4.33;;;9.50;99.90;;;;;;4953744;29;20221;-77
2022/04/28 08:30:27;;;;;;;7.37;4.83;;;9.50;99.90;;;;;;4957646;29;20223;-77
2022/04/28 08:33:11;;;;;;;14.87;5.00;;;9.50;99.90;;;;;;4956990;29;20297;-76
2022/04/28 08:35:55;;;;;;;7.37;4.37;;;9.60;99.90;;;;;;4951356;28;20213;-76
2022/04/28 08:38:40;;;;;;;7.57;4.57;;;9.70;99.90;;;;;;4950057;28;20222;-76
2022/04/28 08:41:33;;;;;;;8.37;4.80;;;9.70;99.90;;;;;;4952144;28;20217;-76
2022/04/28 08:44:23;;;;;;;10.67;5.30;;;9.70;99.90;;;;;;4951401;28;20193;-76
2022/04/28 08:47:08;;;;;;;7.03;4.90;;;9.80;99.90;;;;;;4948627;28;20194;-76
2022/04/28 08:49:53;;;;;;;7.43;4.37;;;10.00;99.90;;;;;;4950219;28;20273;-75
2022/04/28 08:52:37;;;;;;;10.20;4.87;;;10.00;99.90;;;;;;4949020;28;20251;-75
2022/04/28 08:55:21;;;;;;;10.97;5.43;;;10.10;99.90;;;;;;4941546;28;20203;-75
2022/04/28 08:58:06;;;;;;;10.47;5.57;;;10.20;99.90;;;;;;4946033;28;20194;-75
2022/04/28 09:00:51;;;;;;;10.60;5.27;;;10.20;99.90;;;;;;4947767;28;20222;-75
2022/04/28 09:03:35;;;;;;;8.07;5.00;;;10.40;99.90;;;;;;4947643;28;20226;-75
2022/04/28 09:06:24;;;;;;;13.37;5.70;;;10.40;99.90;;;;;;4946281;29;20206;-75
2022/04/28 09:09:10;;;;;;;10.40;5.37;;;10.50;99.90;;;;;;4946999;28;20221;-75
2022/04/28 09:12:00;;;;;;;13.80;5.37;;;10.50;99.90;;;;;;4944158;28;20623;-75
2022/04/28 09:14:46;;;;;;;8.27;5.37;;;10.50;99.90;;;;;;4944757;28;20182;-75
2022/04/28 09:17:41;;;;;;;11.10;5.73;;;10.50;99.90;;;;;;4945290;28;20218;-75
2022/04/28 09:20:25;;;;;;;7.47;5.63;;;10.50;99.90;;;;;;4946149;28;20218;-75
2022/04/28 09:23:11;;;;;;;7.53;5.07;;;10.60;99.90;;;;;;4948149;28;20202;-75
2022/04/28 09:25:56;;;;;;;6.93;4.73;;;10.70;99.90;;;;;;4949936;28;20209;-75
2022/04/28 09:28:41;;;;;;;6.07;4.93;;;10.80;99.90;;;;;;4950364;28;20281;-75
2022/04/28 09:31:25;;;;;;;8.93;5.47;;;10.90;99.90;;;;;;4935802;28;20708;-75
2022/04/28 09:34:16;;;;;;;7.47;4.63;;;11.00;99.90;;;;;;4951426;28;20202;-75
2022/04/28 09:37:01;;;;;;;11.13;5.37;;;11.20;99.90;;;;;;4950584;28;20467;-75
2022/04/28 09:42:57;;;;;;;8.97;4.60;;;11.40;99.90;;;;;;4954243;28;20213;-78
2022/04/28 09:45:42;;;;;;;10.77;5.13;;;11.40;99.90;;;;;;4956765;28;20193;-78
2022/04/28 09:48:31;;;;;;;10.10;4.40;;;11.40;99.90;;;;;;4952310;28;20720;-78
2022/04/28 09:51:22;;;;;;;6.27;4.63;;;11.50;99.90;;;;;;4951912;28;20222;-78
2022/04/28 09:54:08;;;;;;;8.17;4.90;;;11.50;99.90;;;;;;4954708;29;20178;-78
2022/04/28 09:56:52;;;;;;;8.40;5.07;;;11.60;99.90;;;;;;4953109;28;20197;-78
2022/04/28 09:59:37;;;;;;;12.07;4.83;;;11.60;99.90;;;;;;4954024;29;20243;-78
2022/04/28 10:02:24;;;;;;;10.30;4.73;;;11.60;99.90;;;;;;4953628;28;20231;-78
2022/04/28 10:05:08;;;;;;;10.57;4.90;;;11.60;99.90;;;;;;4955180;29;20210;-78
2022/04/28 10:07:53;;;;;;;8.03;5.00;;;11.60;99.90;;;;;;4953737;28;20242;-79
2022/04/28 10:10:40;;;;;;;7.83;5.13;;;11.70;99.90;;;;;;4954167;28;20246;-78
2022/04/28 10:13:28;;;;;;;10.47;5.03;;;11.80;99.90;;;;;;4955111;28;20181;-78
2022/04/28 10:16:13;;;;;;;13.70;5.10;;;11.90;99.90;;;;;;4952637;28;20277;-78
2022/04/28 10:19:03;;;;;;;7.50;5.13;;;11.90;99.90;;;;;;4951178;28;20230;-76
2022/04/28 10:22:17;;;;;;;13.77;5.73;;;12.00;99.90;;;;;;4947745;28;20209;-77
2022/04/28 10:34:14;;;;;;;10.27;5.03;;;12.00;99.90;;;;;;4953259;28;20383;-77
2022/04/28 10:36:59;;;;;;;13.17;4.90;;;12.10;99.90;;;;;;4946976;28;20205;-77
2022/04/28 10:39:45;;;;;;;8.97;4.93;;;12.10;99.90;;;;;;4948491;28;20247;-77
2022/04/28 10:42:29;;;;;;;7.13;5.30;;;12.30;99.90;;;;;;4949572;28;20229;-77
2022/04/28 10:45:28;;;;;;;11.83;4.87;;;12.40;99.90;;;;;;4948313;28;20201;-77
2022/04/28 10:48:29;;;;;;;9.93;4.80;;;12.50;99.90;;;;;;4949072;28;20706;-77
2022/04/28 10:51:15;;;;;;;6.87;4.63;;;12.50;99.90;;;;;;4949147;28;20257;-77
2022/04/28 10:54:19;;;;;;;9.13;4.47;;;12.50;99.90;;;;;;4949468;28;20189;-77
2022/04/28 10:57:06;;;;;;;13.10;5.00;;;12.60;99.90;;;;;;4948477;28;20225;-77
2022/04/28 10:59:51;;;;;;;9.37;4.77;;;12.60;99.90;;;;;;4949932;28;20221;-77
2022/04/28 11:02:37;;;;;;;12.03;4.43;;;12.70;99.90;;;;;;4949846;28;20250;-77
2022/04/28 11:05:33;;;;;;;8.23;4.30;;;12.80;99.90;;;;;;4945378;28;20186;-77
2022/04/28 11:08:24;;;;;;;7.07;4.87;;;12.80;99.90;;;;;;4947030;28;20285;-77
2022/04/28 11:11:12;;;;;;;9.47;4.53;;;12.80;99.90;;;;;;4948017;28;20229;-78
2022/04/28 11:13:58;;;;;;;6.63;4.17;;;12.90;99.90;;;;;;4948285;28;20186;-77
2022/04/28 11:16:43;;;;;;;11.53;4.97;;;12.80;99.90;;;;;;4950075;28;20234;-77
2022/04/28 11:19:28;;;;;;;7.37;4.40;;;12.90;99.90;;;;;;4948707;28;20198;-77
2022/04/28 11:22:13;;;;;;;11.83;6.33;;;13.00;99.90;;;;;;4949921;29;20233;-77
2022/04/28 11:24:57;;;;;;;9.20;5.07;;;13.20;99.90;;;;;;4950512;28;20249;-77
2022/04/28 11:27:43;;;;;;;7.13;4.67;;;13.20;99.90;;;;;;4948700;28;20210;-77
2022/04/28 11:30:27;;;;;;;10.57;4.57;;;13.20;99.90;;;;;;4948403;28;20225;-77
2022/04/28 11:33:13;;;;;;;9.70;4.90;;;13.20;99.90;;;;;;4949740;28;20717;-77
2022/04/28 11:35:57;;;;;;;9.10;4.47;;;13.10;99.90;;;;;;4948287;28;20295;-77
2022/04/28 11:38:48;;;;;;;7.77;4.23;;;13.20;99.90;;;;;;4948031;28;20215;-77
2022/04/28 11:41:34;;;;;;;12.70;5.00;;;13.20;99.90;;;;;;4947653;28;20247;-78
2022/04/28 11:44:19;;;;;;;8.17;4.90;;;13.30;99.90;;;;;;4947536;28;20265;-78
2022/04/28 11:47:05;;;;;;;10.83;4.57;;;13.50;99.90;;;;;;4948264;28;20193;-78
2022/04/28 11:49:57;;;;;;;10.83;4.93;;;13.50;99.90;;;;;;4943866;28;20229;-78
2022/04/28 11:52:42;;;;;;;13.27;5.20;;;13.60;99.90;;;;;;4949826;28;20182;-77
2022/04/28 11:55:31;;;;;;;7.10;4.43;;;13.60;99.90;;;;;;4947285;28;20206;-77
2022/04/28 11:58:18;;;;;;;8.53;4.27;;;13.60;99.90;;;;;;4943911;29;20550;-77
2022/04/28 12:01:02;;;;;;;12.10;4.90;;;13.70;99.90;;;;;;4947858;28;20225;-78
2022/04/28 12:03:55;;;;;;;8.07;4.70;;;13.80;99.90;;;;;;4946095;28;20250;-78
2022/04/28 12:06:45;;;;;;;10.90;5.23;;;13.80;99.90;;;;;;4947496;28;20270;-77
2022/04/28 12:15:43;;;;;;;10.20;5.43;;;14.00;99.90;;;;;;4949065;28;20181;-77
2022/04/28 12:21:36;;;;;;;9.77;4.73;;;14.10;99.90;;;;;;4948449;28;20237;-77
2022/04/28 12:24:22;;;;;;;6.10;4.50;;;14.20;99.90;;;;;;4950403;28;20666;-77
2022/04/28 12:27:07;;;;;;;9.27;5.27;;;14.20;99.90;;;;;;4950480;28;20209;-77
2022/04/28 12:29:55;;;;;;;9.67;4.90;;;14.10;99.90;;;;;;4948339;28;20745;-77
2022/04/28 12:32:43;;;;;;;14.17;4.60;;;14.10;99.90;;;;;;4948440;28;20249;-78
2022/04/28 12:35:32;;;;;;;8.20;4.93;;;14.20;99.90;;;;;;4948898;28;20636;-77
2022/04/28 12:38:26;;;;;;;12.80;5.13;;;14.20;99.90;;;;;;4947991;28;20233;-78
2022/04/28 12:41:22;;;;;;;11.50;5.53;;;14.10;99.90;;;;;;4947959;28;20242;-77
2022/04/28 12:44:07;;;;;;;8.53;4.27;;;14.10;99.90;;;;;;4948720;28;20210;-78
2022/04/28 12:46:55;;;;;;;8.27;4.53;;;14.20;99.90;;;;;;4951462;28;20874;-78
2022/04/28 12:49:48;;;;;;;11.00;4.83;;;14.30;99.90;;;;;;4947852;28;20365;-78
2022/04/28 12:52:34;;;;;;;7.70;4.60;;;14.30;99.90;;;;;;4947618;28;20242;-78
2022/04/28 12:55:19;;;;;;;12.33;4.90;;;14.30;99.90;;;;;;4949101;28;20197;-78
2022/04/28 12:58:08;;;;;;;8.00;4.87;;;14.30;99.90;;;;;;4950108;28;20190;-77
2022/04/28 13:00:52;;;;;;;12.63;4.40;;;14.30;99.90;;;;;;4952433;28;20326;-78
2022/04/28 13:03:38;;;;;;;6.60;4.17;;;14.40;99.90;;;;;;4952210;28;20194;-78
2022/04/28 13:06:24;;;;;;;8.93;4.63;;;14.30;99.90;;;;;;4953645;28;20217;-78
2022/04/28 13:09:09;;;;;;;9.93;5.20;;;14.30;99.90;;;;;;4951366;28;20229;-78
2022/04/28 13:11:54;;;;;;;8.03;4.10;;;14.40;99.90;;;;;;4952090;28;20253;-78
2022/04/28 13:14:39;;;;;;;7.17;4.63;;;14.40;99.90;;;;;;4950750;28;20296;-78
2022/04/28 13:17:23;;;;;;;8.10;4.40;;;14.50;99.90;;;;;;4949748;28;20250;-78
2022/04/28 13:20:08;;;;;;;8.03;4.53;;;14.50;99.90;;;;;;4951142;28;20224;-78
2022/04/28 13:22:52;;;;;;;7.80;5.17;;;14.60;99.90;;;;;;4951184;28;20225;-77
2022/04/28 13:25:36;;;;;;;12.00;6.03;;;14.60;99.90;;;;;;4952155;28;20213;-77
2022/04/28 13:28:21;;;;;;;8.37;5.40;;;14.60;99.90;;;;;;4952866;28;20213;-78
2022/04/28 13:31:05;;;;;;;8.23;5.27;;;14.60;99.90;;;;;;4953084;28;20286;-77
2022/04/28 13:33:51;;;;;;;10.43;5.00;;;14.60;99.90;;;;;;4951176;28;20210;-77
2022/04/28 13:36:36;;;;;;;11.43;5.33;;;14.50;99.90;;;;;;4952522;28;20214;-77
2022/04/28 13:39:20;;;;;;;8.23;4.70;;;14.50;99.90;;;;;;4950809;28;20230;-78
2022/04/28 13:42:05;;;;;;;8.57;4.83;;;14.50;99.90;;;;;;4953188;28;20196;-77
2022/04/28 13:44:49;;;;;;;8.00;4.70;;;14.40;99.90;;;;;;4952730;29;20214;-77
2022/04/28 13:47:33;;;;;;;10.70;5.40;;;14.40;99.90;;;;;;4949050;28;20273;-78
2022/04/28 13:50:18;;;;;;;6.53;4.43;;;14.60;99.90;;;;;;4952324;28;20214;-78
2022/04/28 13:53:02;;;;;;;8.73;5.07;;;14.60;99.90;;;;;;4953404;28;21054;-78
2022/04/28 13:55:47;;;;;;;7.57;4.20;;;14.70;99.90;;;;;;4953417;28;20198;-78
2022/04/28 13:58:33;;;;;;;11.93;4.50;;;14.80;99.90;;;;;;4953176;28;20637;-77
2022/04/28 14:01:18;;;;;;;9.03;4.53;;;14.90;99.90;;;;;;4952430;28;20741;-76
2022/04/28 14:04:03;;;;;;;10.57;5.07;;;15.00;99.90;;;;;;4949307;28;20197;-77
2022/04/28 14:06:47;;;;;;;10.57;4.70;;;14.90;99.90;;;;;;4948834;28;20206;-76
2022/04/28 14:09:32;;;;;;;11.40;4.37;;;14.90;99.90;;;;;;4948603;28;20209;-76
2022/04/28 14:12:17;;;;;;;8.87;5.00;;;14.80;99.90;;;;;;4950641;28;20189;-77
2022/04/28 14:15:01;;;;;;;9.53;4.93;;;14.80;99.90;;;;;;4947681;28;20229;-77
2022/04/28 14:17:46;;;;;;;10.93;4.83;;;14.80;99.90;;;;;;4946733;28;20222;-77
2022/04/28 14:20:31;;;;;;;8.60;5.07;;;14.80;99.90;;;;;;4952013;28;20262;-77
2022/04/28 14:23:15;;;;;;;9.07;5.33;;;14.90;99.90;;;;;;4950537;28;20202;-76
2022/04/28 14:26:00;;;;;;;8.77;4.30;;;14.90;99.90;;;;;;4950453;28;20206;-77
2022/04/28 14:28:45;;;;;;;8.13;4.03;;;15.00;99.90;;;;;;4951129;28;20237;-77
2022/04/28 14:31:30;;;;;;;8.40;4.00;;;15.00;99.90;;;;;;4951390;28;20271;-77
2022/04/28 14:34:16;;;;;;;13.13;4.03;;;15.00;99.90;;;;;;4952296;28;20223;-77
2022/04/28 14:37:01;;;;;;;9.90;3.90;;;14.90;99.90;;;;;;4953242;28;20194;-75
2022/04/28 14:39:46;;;;;;;10.47;3.90;;;15.00;99.90;;;;;;4950751;28;20190;-75
2022/04/28 14:42:31;;;;;;;9.47;3.37;;;14.90;99.90;;;;;;4950365;28;20265;-76
2022/04/28 14:45:15;;;;;;;7.70;3.40;;;14.80;99.90;;;;;;4949159;28;20206;-75
2022/04/28 14:48:01;;;;;;;6.93;3.00;;;14.80;99.90;;;;;;4952146;28;20205;-76
2022/04/28 14:53:48;;;;;;;9.37;3.20;;;14.90;99.90;;;;;;4952717;28;20194;-76
2022/04/28 14:56:32;;;;;;;13.23;3.63;;;14.90;99.90;;;;;;4951807;28;20202;-76
2022/04/28 14:59:16;;;;;;;7.17;3.07;;;14.90;99.90;;;;;;4949361;28;20245;-76